createdAt,value
2023-04-15T00:01:14.630Z,11.13
2023-04-15T00:03:42.314Z,10.92
2023-04-15T00:06:12.036Z,10.90
2023-04-15T00:08:39.474Z,10.84
2023-04-15T00:11:07.364Z,10.79
2023-04-15T00:13:34.826Z,10.88
2023-04-15T00:16:02.822Z,10.85
2023-04-15T00:18:30.221Z,10.87
2023-04-15T00:20:58.043Z,10.93
2023-04-15T00:23:27.550Z,10.97
2023-04-15T00:25:55.387Z,11.02
2023-04-15T00:28:22.650Z,11.03
2023-04-15T00:30:50.924Z,11.08
2023-04-15T00:33:18.410Z,11.05
2023-04-15T00:35:46.182Z,10.92
2023-04-15T00:38:13.560Z,10.87
2023-04-15T00:40:43.639Z,10.92
2023-04-15T00:43:11.040Z,10.91
2023-04-15T00:45:39.029Z,10.97
2023-04-15T00:48:06.557Z,10.90
2023-04-15T00:50:34.324Z,10.89
2023-04-15T00:53:01.702Z,10.94
2023-04-15T00:55:29.428Z,10.91
2023-04-15T00:57:58.515Z,11.04
2023-04-15T01:00:26.619Z,10.98
2023-04-15T01:02:54.242Z,10.97
2023-04-15T01:05:22.349Z,10.84
2023-04-15T01:07:49.888Z,10.99
2023-04-15T01:10:17.842Z,11.12
2023-04-15T01:12:45.605Z,11.19
2023-04-15T01:15:15.465Z,11.04
2023-04-15T01:17:42.985Z,10.91
2023-04-15T01:20:11.033Z,10.99
2023-04-15T01:22:38.447Z,11.01
2023-04-15T01:25:10.104Z,11.09
2023-04-15T01:27:41.826Z,10.87
2023-04-15T01:30:10.653Z,10.87
2023-04-15T01:32:38.368Z,10.95
2023-04-15T01:35:07.111Z,10.97
2023-04-15T01:37:34.662Z,10.95
2023-04-15T01:40:02.589Z,11.08
2023-04-15T01:42:29.981Z,11.01
2023-04-15T01:44:59.256Z,11.04
2023-04-15T01:47:26.737Z,11.00
2023-04-15T01:49:54.621Z,10.95
2023-04-15T01:52:21.874Z,10.98
2023-04-15T01:54:49.856Z,11.10
2023-04-15T01:57:17.275Z,10.97
2023-04-15T01:59:45.096Z,10.86
2023-04-15T02:02:14.035Z,10.97
2023-04-15T02:04:42.080Z,10.90
2023-04-15T02:07:09.440Z,10.89
2023-04-15T02:09:37.239Z,10.87
2023-04-15T02:12:04.790Z,10.99
2023-04-15T02:14:32.564Z,11.10
2023-04-15T02:16:59.910Z,10.98
2023-04-15T02:19:29.706Z,10.98
2023-04-15T02:21:57.071Z,11.05
2023-04-15T02:24:24.795Z,11.01
2023-04-15T02:26:52.317Z,10.98
2023-04-15T02:29:20.150Z,10.92
2023-04-15T02:31:47.692Z,10.86
2023-04-15T02:34:15.681Z,10.83
2023-04-15T02:36:44.477Z,10.86
2023-04-15T02:39:12.185Z,10.85
2023-04-15T02:41:39.509Z,10.81
2023-04-15T02:44:07.352Z,10.87
2023-04-15T02:46:35.045Z,10.93
2023-04-15T02:49:03.024Z,10.95
2023-04-15T02:51:31.089Z,10.84
2023-04-15T02:54:00.390Z,10.92
2023-04-15T02:56:27.844Z,10.78
2023-04-15T02:58:55.669Z,10.74
2023-04-15T03:01:23.049Z,10.73
2023-04-15T03:03:51.071Z,10.74
2023-04-15T03:06:18.789Z,10.68
2023-04-15T03:08:46.643Z,10.68
2023-04-15T03:11:15.506Z,10.64
2023-04-15T03:13:42.826Z,10.65
2023-04-15T03:16:11.291Z,10.65
2023-04-15T03:18:41.311Z,10.59
2023-04-15T03:21:11.663Z,10.51
2023-04-15T03:23:39.347Z,10.33
2023-04-15T03:26:07.197Z,10.21
2023-04-15T03:28:35.983Z,10.18
2023-04-15T03:31:03.775Z,10.13
2023-04-15T03:33:31.189Z,10.10
2023-04-15T03:35:58.990Z,10.04
2023-04-15T03:38:26.358Z,10.03
2023-04-15T03:40:54.235Z,10.03
2023-04-15T03:43:21.623Z,9.93
2023-04-15T03:45:51.157Z,9.71
2023-04-15T03:48:18.824Z,9.72
2023-04-15T03:50:46.830Z,9.44
2023-04-15T03:53:14.380Z,9.33
2023-04-15T03:55:42.557Z,9.27
2023-04-15T03:58:09.959Z,9.22
2023-04-15T04:00:38.034Z,9.29
2023-04-15T04:03:07.054Z,9.37
2023-04-15T04:05:35.107Z,9.52
2023-04-15T04:08:02.506Z,9.72
2023-04-15T04:10:30.389Z,9.77
2023-04-15T04:12:58.279Z,9.96
2023-04-15T04:15:29.175Z,10.09
2023-04-15T04:17:56.710Z,10.08
2023-04-15T04:20:26.346Z,10.13
2023-04-15T04:22:53.754Z,9.76
2023-04-15T04:25:22.000Z,9.75
2023-04-15T04:27:49.410Z,9.53
2023-04-15T04:30:17.622Z,9.44
2023-04-15T04:32:45.305Z,9.31
2023-04-15T04:35:13.064Z,9.32
2023-04-15T04:37:42.114Z,9.11
2023-04-15T04:40:10.906Z,8.95
2023-04-15T04:42:39.967Z,8.86
2023-04-15T04:45:08.788Z,8.75
2023-04-15T04:47:36.297Z,8.68
2023-04-15T04:50:04.661Z,8.75
2023-04-15T04:52:35.180Z,8.66
2023-04-15T04:55:05.361Z,8.62
2023-04-15T04:57:32.955Z,8.55
2023-04-15T05:00:01.346Z,8.47
2023-04-15T05:02:28.744Z,8.45
2023-04-15T05:04:56.885Z,8.47
2023-04-15T05:07:24.565Z,8.52
2023-04-15T05:09:52.427Z,8.18
2023-04-15T05:12:21.310Z,8.10
2023-04-15T05:14:51.780Z,8.17
2023-04-15T05:17:19.333Z,8.10
2023-04-15T05:19:47.149Z,8.14
2023-04-15T05:22:14.637Z,8.04
2023-04-15T05:24:42.621Z,8.01
2023-04-15T05:27:10.010Z,8.07
2023-04-15T05:29:39.103Z,8.15
2023-04-15T05:32:06.948Z,8.05
2023-04-15T05:34:35.502Z,8.01
2023-04-15T05:37:04.709Z,7.96
2023-04-15T05:39:32.548Z,7.98
2023-04-15T05:42:00.159Z,8.01
2023-04-15T05:44:28.149Z,7.99
2023-04-15T05:46:58.675Z,7.89
2023-04-15T05:49:26.950Z,8.02
2023-04-15T05:51:54.380Z,8.11
2023-04-15T05:54:22.404Z,8.04
2023-04-15T05:56:53.009Z,8.01
2023-04-15T05:59:21.299Z,8.12
2023-04-15T06:01:48.793Z,8.08
2023-04-15T06:04:18.331Z,7.98
2023-04-15T06:06:45.791Z,8.19
2023-04-15T06:09:13.816Z,8.22
2023-04-15T06:11:41.296Z,8.14
2023-04-15T06:14:09.553Z,8.16
2023-04-15T06:16:37.281Z,8.21
2023-04-15T06:19:05.089Z,8.18
2023-04-15T06:21:34.178Z,8.01
2023-04-15T06:24:02.568Z,8.09
2023-04-15T06:26:30.096Z,8.11
2023-04-15T06:28:58.446Z,8.10
2023-04-15T06:31:25.811Z,8.15
2023-04-15T06:33:53.732Z,8.36
2023-04-15T06:36:21.241Z,8.50
2023-04-15T06:38:50.973Z,8.34
2023-04-15T06:41:18.605Z,8.37
2023-04-15T06:43:49.618Z,8.45
2023-04-15T06:46:17.181Z,8.36
2023-04-15T06:48:45.295Z,8.46
2023-04-15T06:51:15.952Z,8.56
2023-04-15T06:53:43.942Z,8.62
2023-04-15T06:56:13.067Z,8.78
2023-04-15T06:58:41.133Z,8.76
2023-04-15T07:01:08.564Z,8.70
2023-04-15T07:03:36.890Z,8.79
2023-04-15T07:06:04.686Z,8.76
2023-04-15T07:08:32.603Z,8.91
2023-04-15T07:11:00.212Z,8.93
2023-04-15T07:13:32.240Z,8.95
2023-04-15T07:15:59.769Z,9.12
2023-04-15T07:18:27.598Z,9.27
2023-04-15T07:20:55.269Z,9.25
2023-04-15T07:23:23.248Z,9.46
2023-04-15T07:25:50.838Z,9.66
2023-04-15T07:28:18.804Z,9.83
2023-04-15T07:30:47.822Z,10.03
2023-04-15T07:33:15.947Z,10.33
2023-04-15T07:35:43.373Z,10.27
2023-04-15T07:38:11.378Z,10.15
2023-04-15T07:40:38.935Z,10.25
2023-04-15T07:43:06.815Z,9.93
2023-04-15T07:45:34.314Z,9.75
2023-04-15T07:48:04.114Z,9.98
2023-04-15T07:50:31.675Z,10.13
2023-04-15T07:52:59.834Z,9.98
2023-04-15T07:55:28.289Z,9.89
2023-04-15T07:57:56.410Z,10.19
2023-04-15T08:00:24.004Z,10.27
2023-04-15T08:02:52.624Z,10.23
2023-04-15T08:05:21.829Z,10.34
2023-04-15T08:07:49.891Z,10.28
2023-04-15T08:10:17.864Z,10.37
2023-04-15T08:12:45.937Z,10.38
2023-04-15T08:15:13.448Z,10.43
2023-04-15T08:17:41.367Z,10.46
2023-04-15T08:20:09.109Z,10.44
2023-04-15T08:22:38.848Z,10.77
2023-04-15T08:25:06.632Z,10.91
2023-04-15T08:27:34.620Z,10.83
2023-04-15T08:30:04.688Z,10.69
2023-04-15T08:32:33.058Z,10.63
2023-04-15T08:35:02.858Z,10.54
2023-04-15T08:37:31.582Z,10.98
2023-04-15T08:40:03.894Z,11.29
2023-04-15T08:42:36.869Z,11.69
2023-04-15T08:45:05.731Z,11.81
2023-04-15T08:47:34.998Z,11.92
2023-04-15T08:50:04.405Z,11.93
2023-04-15T08:52:32.710Z,12.34
2023-04-15T08:55:02.259Z,12.40
2023-04-15T08:57:31.858Z,12.61
2023-04-15T08:59:59.499Z,12.32
2023-04-15T09:02:27.796Z,12.39
2023-04-15T09:04:56.984Z,12.18
2023-04-15T09:07:25.502Z,12.30
2023-04-15T09:09:52.905Z,12.12
2023-04-15T09:12:21.076Z,11.81
2023-04-15T09:14:50.890Z,12.14
2023-04-15T09:17:20.270Z,11.83
2023-04-15T09:19:47.938Z,11.78
2023-04-15T09:22:15.870Z,12.20
2023-04-15T09:24:43.139Z,12.07
2023-04-15T09:27:11.596Z,12.42
2023-04-15T09:29:41.860Z,12.34
2023-04-15T09:32:15.539Z,12.46
2023-04-15T09:34:43.559Z,12.33
2023-04-15T09:37:11.642Z,12.68
2023-04-15T09:39:46.829Z,12.85
2023-04-15T09:42:14.732Z,12.73
2023-04-15T09:44:42.236Z,12.83
2023-04-15T09:47:28.253Z,13.13
2023-04-15T09:49:56.489Z,13.21
2023-04-15T09:52:24.556Z,13.33
2023-04-15T09:54:53.722Z,13.59
2023-04-15T09:57:21.710Z,13.46
2023-04-15T09:59:49.006Z,13.47
2023-04-15T10:02:20.858Z,13.29
2023-04-15T10:04:49.133Z,13.08
2023-04-15T10:07:17.853Z,13.34
2023-04-15T10:09:49.266Z,13.19
2023-04-15T10:12:18.133Z,13.10
2023-04-15T10:14:51.047Z,13.43
2023-04-15T10:17:22.604Z,13.41
2023-04-15T10:19:53.469Z,13.05
2023-04-15T10:22:22.581Z,12.91
2023-04-15T10:24:51.580Z,12.80
2023-04-15T10:27:22.490Z,12.90
2023-04-15T10:29:53.251Z,13.03
2023-04-15T10:32:24.238Z,13.14
2023-04-15T10:34:54.420Z,13.05
2023-04-15T10:37:33.285Z,13.13
2023-04-15T10:40:00.886Z,13.90
2023-04-15T10:42:35.008Z,14.07
2023-04-15T10:45:16.176Z,13.75
2023-04-15T10:47:46.148Z,13.69
2023-04-15T10:50:13.663Z,13.79
2023-04-15T10:52:41.700Z,13.54
2023-04-15T10:55:19.545Z,13.09
2023-04-15T10:57:47.440Z,13.63
2023-04-15T11:00:17.982Z,13.92
2023-04-15T11:02:54.798Z,13.98
2023-04-15T11:05:24.007Z,13.40
2023-04-15T11:07:54.896Z,13.17
2023-04-15T11:10:53.166Z,13.35
2023-04-15T11:13:29.725Z,13.15
2023-04-15T11:16:01.501Z,13.11
2023-04-15T11:18:34.894Z,13.16
2023-04-15T11:21:04.982Z,13.72
2023-04-15T11:23:36.400Z,13.77
2023-04-15T11:26:06.533Z,13.53
2023-04-15T11:28:34.286Z,13.40
2023-04-15T11:31:07.575Z,13.15
2023-04-15T11:33:37.050Z,13.22
2023-04-15T11:36:05.088Z,14.00
2023-04-15T11:38:34.502Z,14.76
2023-04-15T11:41:04.527Z,15.04
2023-04-15T11:43:34.818Z,14.51
2023-04-15T11:46:03.404Z,14.34
2023-04-15T11:48:33.201Z,15.00
2023-04-15T11:51:04.205Z,15.28
2023-04-15T11:53:40.047Z,15.04
2023-04-15T11:56:09.438Z,14.60
2023-04-15T11:58:38.033Z,14.56
2023-04-15T12:01:06.703Z,14.80
2023-04-15T12:03:39.245Z,15.32
2023-04-15T12:06:13.538Z,15.71
2023-04-15T12:08:58.467Z,15.57
2023-04-15T12:11:34.463Z,15.97
2023-04-15T12:14:06.743Z,16.11
2023-04-15T12:16:37.203Z,16.24
2023-04-15T12:19:18.059Z,16.47
2023-04-15T12:21:48.440Z,16.45
2023-04-15T12:24:21.531Z,16.56
2023-04-15T12:26:50.292Z,16.55
2023-04-15T12:29:18.520Z,16.39
2023-04-15T12:31:51.116Z,16.06
2023-04-15T12:34:25.971Z,16.00
2023-04-15T12:36:55.355Z,16.21
2023-04-15T12:39:24.155Z,16.16
2023-04-15T12:41:51.634Z,16.24
2023-04-15T12:44:19.817Z,16.11
2023-04-15T12:46:47.334Z,16.12
2023-04-15T12:49:15.060Z,16.37
2023-04-15T12:51:42.484Z,16.38
2023-04-15T12:54:11.747Z,15.78
2023-04-15T12:56:39.174Z,15.65
2023-04-15T12:59:07.154Z,15.09
2023-04-15T13:01:34.511Z,15.47
2023-04-15T13:04:02.434Z,15.38
2023-04-15T13:06:32.543Z,15.21
2023-04-15T13:09:00.417Z,14.79
2023-04-15T13:11:29.958Z,14.55
2023-04-15T13:13:58.213Z,14.76
2023-04-15T13:16:25.832Z,15.02
2023-04-15T13:18:53.563Z,14.82
2023-04-15T13:21:21.325Z,15.28
2023-04-15T13:23:49.489Z,15.04
2023-04-15T13:26:17.271Z,15.39
2023-04-15T13:28:46.675Z,15.92
2023-04-15T13:31:14.230Z,16.18
2023-04-15T13:33:41.982Z,16.42
2023-04-15T13:36:09.946Z,16.83
2023-04-15T13:38:37.645Z,17.20
2023-04-15T13:41:08.098Z,17.32
2023-04-15T13:43:36.016Z,17.63
2023-04-15T13:46:05.003Z,17.97
2023-04-15T13:48:33.277Z,18.18
2023-04-15T13:51:03.046Z,18.37
2023-04-15T13:53:38.187Z,18.70
2023-04-15T13:56:07.550Z,19.10
2023-04-15T13:58:36.061Z,19.61
2023-04-15T14:01:06.303Z,19.85
2023-04-15T14:03:35.223Z,20.08
2023-04-15T14:06:02.903Z,20.59
2023-04-15T14:08:30.853Z,20.32
2023-04-15T14:10:58.362Z,19.96
2023-04-15T14:13:26.742Z,20.12
2023-04-15T14:15:54.457Z,20.23
2023-04-15T14:18:23.878Z,20.02
2023-04-15T14:20:51.423Z,20.22
2023-04-15T14:23:19.368Z,20.27
2023-04-15T14:25:48.382Z,20.32
2023-04-15T14:28:16.585Z,20.56
2023-04-15T14:30:44.095Z,20.53
2023-04-15T14:33:12.344Z,19.99
2023-04-15T14:35:41.425Z,20.04
2023-04-15T14:38:09.369Z,20.27
2023-04-15T14:40:36.845Z,20.30
2023-04-15T14:43:04.665Z,20.56
2023-04-15T14:45:32.075Z,20.48
2023-04-15T14:48:00.396Z,20.80
2023-04-15T14:50:28.221Z,20.70
2023-04-15T14:52:57.535Z,20.76
2023-04-15T14:55:25.189Z,20.87
2023-04-15T14:57:53.062Z,21.06
2023-04-15T15:00:20.549Z,21.26
2023-04-15T15:02:48.441Z,21.12
2023-04-15T15:05:16.470Z,20.99
2023-04-15T15:07:44.636Z,20.79
2023-04-15T15:10:13.773Z,20.63
2023-04-15T15:12:41.513Z,20.62
2023-04-15T15:15:19.595Z,20.15
2023-04-15T15:17:56.295Z,19.80
2023-04-15T15:20:24.111Z,19.36
2023-04-15T15:22:52.258Z,19.12
2023-04-15T15:25:21.143Z,18.95
2023-04-15T15:27:49.067Z,18.90
2023-04-15T15:30:16.581Z,19.03
2023-04-15T15:32:44.541Z,18.96
2023-04-15T15:35:11.979Z,19.09
2023-04-15T15:37:40.827Z,18.83
2023-04-15T15:40:09.619Z,18.55
2023-04-15T15:42:39.008Z,18.73
2023-04-15T15:45:07.251Z,18.76
2023-04-15T15:47:35.813Z,18.76
2023-04-15T15:50:05.569Z,18.80
2023-04-15T15:52:34.087Z,18.64
2023-04-15T15:55:01.683Z,18.76
2023-04-15T15:57:29.441Z,18.58
2023-04-15T16:00:10.197Z,18.17
2023-04-15T16:05:10.293Z,18.21
2023-04-15T16:07:38.075Z,18.01
2023-04-15T16:10:06.574Z,17.98
2023-04-15T16:12:35.032Z,17.69
2023-04-15T16:15:04.497Z,17.79
2023-04-15T16:17:33.207Z,17.83
2023-04-15T16:20:01.511Z,17.84
2023-04-15T16:22:29.681Z,17.62
2023-04-15T16:24:57.246Z,17.52
2023-04-15T16:27:24.949Z,17.55
2023-04-15T16:29:52.310Z,17.52
2023-04-15T16:32:21.866Z,17.36
2023-04-15T16:34:49.350Z,17.34
2023-04-15T16:37:17.426Z,17.20
2023-04-15T16:39:44.739Z,17.12
2023-04-15T16:42:12.644Z,17.12
2023-04-15T16:44:40.001Z,16.92
2023-04-15T16:47:08.311Z,16.75
2023-04-15T16:49:37.076Z,16.75
2023-04-15T16:52:04.832Z,16.70
2023-04-15T16:54:32.253Z,16.65
2023-04-15T16:57:00.133Z,16.64
2023-04-15T16:59:27.575Z,16.71
2023-04-15T17:01:55.451Z,16.77
2023-04-15T17:04:23.264Z,16.63
2023-04-15T17:06:52.640Z,16.59
2023-04-15T17:09:20.248Z,16.48
2023-04-15T17:11:48.656Z,16.57
2023-04-15T17:14:16.223Z,16.30
2023-04-15T17:16:44.222Z,16.22
2023-04-15T17:19:11.853Z,16.13
2023-04-15T17:21:39.765Z,15.98
2023-04-15T17:24:08.484Z,15.89
2023-04-15T17:26:36.335Z,15.91
2023-04-15T17:29:04.217Z,15.77
2023-04-15T17:31:32.281Z,15.66
2023-04-15T17:34:09.119Z,15.68
2023-04-15T17:36:38.073Z,15.65
2023-04-15T17:39:05.935Z,15.54
2023-04-15T17:41:35.458Z,15.37
2023-04-15T17:46:30.954Z,15.16
2023-04-15T17:48:58.358Z,15.12
2023-04-15T17:51:26.124Z,14.99
2023-04-15T17:53:53.461Z,14.68
2023-04-15T17:56:21.314Z,14.70
2023-04-15T17:58:50.232Z,14.71
2023-04-15T18:01:18.017Z,14.66
2023-04-15T18:03:45.451Z,14.69
2023-04-15T18:06:16.108Z,14.67
2023-04-15T18:08:43.605Z,14.77
2023-04-15T18:11:11.679Z,14.09
2023-04-15T18:13:39.040Z,14.06
2023-04-15T18:16:08.574Z,13.92
2023-04-15T18:18:38.698Z,13.92
2023-04-15T18:21:06.588Z,13.79
2023-04-15T18:23:34.155Z,13.80
2023-04-15T18:26:01.960Z,13.67
2023-04-15T18:28:30.686Z,13.38
2023-04-15T18:30:58.527Z,13.37
2023-04-15T18:33:27.566Z,13.27
2023-04-15T18:35:55.738Z,13.17
2023-04-15T18:38:23.798Z,13.12
2023-04-15T18:40:52.240Z,13.23
2023-04-15T18:43:19.773Z,13.31
2023-04-15T18:45:47.696Z,13.05
2023-04-15T18:48:15.162Z,13.00
2023-04-15T18:50:44.552Z,12.72
2023-04-15T18:53:12.050Z,12.64
2023-04-15T18:55:40.473Z,12.65
2023-04-15T18:58:09.179Z,12.64
2023-04-15T19:00:37.225Z,12.76
2023-04-15T19:03:04.847Z,12.84
2023-04-15T19:05:32.998Z,12.90
2023-04-15T19:08:02.094Z,12.82
2023-04-15T19:10:30.081Z,12.81
2023-04-15T19:12:57.549Z,12.70
2023-04-15T19:15:26.279Z,12.49
2023-04-15T19:17:53.680Z,12.49
2023-04-15T19:20:23.014Z,12.62
2023-04-15T19:22:50.468Z,12.72
2023-04-15T19:25:20.388Z,12.84
2023-04-15T19:27:47.947Z,12.93
2023-04-15T19:30:15.854Z,13.03
2023-04-15T19:32:43.292Z,13.02
2023-04-15T19:35:11.732Z,12.96
2023-04-15T19:37:39.180Z,12.82
2023-04-15T19:40:08.419Z,12.82
2023-04-15T19:42:37.358Z,12.82
2023-04-15T19:45:06.150Z,12.79
2023-04-15T19:47:34.211Z,12.80
2023-04-15T19:50:02.296Z,12.82
2023-04-15T19:52:29.789Z,12.71
2023-04-15T19:54:57.652Z,12.69
2023-04-15T19:57:25.216Z,12.67
2023-04-15T19:59:54.659Z,12.58
2023-04-15T20:02:22.269Z,12.66
2023-04-15T20:04:50.377Z,12.71
2023-04-15T20:07:17.708Z,12.73
2023-04-15T20:09:46.976Z,12.71
2023-04-15T20:12:50.221Z,12.61
2023-04-15T20:15:07.778Z,12.57
2023-04-15T20:17:36.197Z,12.71
2023-04-15T20:20:04.500Z,12.82
2023-04-15T20:22:32.398Z,12.87
2023-04-15T20:25:01.225Z,12.81
2023-04-15T20:27:28.858Z,12.81
2023-04-15T20:29:56.641Z,12.82
2023-04-15T20:32:25.798Z,12.70
2023-04-15T20:34:53.724Z,12.66
2023-04-15T20:37:21.184Z,12.63
2023-04-15T20:39:49.205Z,12.51
2023-04-15T20:42:17.837Z,12.58
2023-04-15T20:44:45.688Z,12.53
2023-04-15T20:47:13.289Z,12.45
2023-04-15T20:49:42.869Z,12.26
2023-04-15T20:52:10.512Z,12.08
2023-04-15T20:54:38.617Z,11.79
2023-04-15T20:57:06.091Z,11.70
2023-04-15T20:59:33.782Z,11.75
2023-04-15T21:02:01.527Z,11.73
2023-04-15T21:04:29.412Z,11.74
2023-04-15T21:06:58.307Z,11.82
2023-04-15T21:09:25.988Z,11.85
2023-04-15T21:12:01.090Z,12.08
2023-04-15T21:14:29.911Z,11.95
2023-04-15T21:16:57.744Z,12.09
2023-04-15T21:19:25.567Z,12.22
2023-04-15T21:21:53.105Z,12.30
2023-04-15T21:24:22.457Z,12.44
2023-04-15T21:26:49.993Z,12.41
2023-04-15T21:29:17.842Z,12.38
2023-04-15T21:31:45.399Z,12.30
2023-04-15T21:34:13.335Z,12.27
2023-04-15T21:36:40.690Z,12.29
2023-04-15T21:39:08.555Z,12.23
2023-04-15T21:41:37.639Z,11.97
2023-04-15T21:44:05.806Z,11.76
2023-04-15T21:46:35.517Z,11.69
2023-04-15T21:49:04.287Z,11.50
2023-04-15T21:51:31.936Z,11.49
2023-04-15T21:53:59.881Z,11.38
2023-04-15T21:56:27.179Z,11.41
2023-04-15T21:58:57.500Z,11.36
2023-04-15T22:01:25.101Z,11.41
2023-04-15T22:03:54.963Z,11.28
2023-04-15T22:06:22.671Z,11.01
2023-04-15T22:08:56.850Z,10.96
2023-04-15T22:11:25.569Z,10.91
2023-04-15T22:13:53.250Z,10.84
2023-04-15T22:16:22.069Z,10.90
2023-04-15T22:18:50.046Z,10.95
2023-04-15T22:21:17.411Z,10.98
2023-04-15T22:23:46.666Z,10.95
2023-04-15T22:26:15.107Z,11.07
2023-04-15T22:28:43.015Z,10.84
2023-04-15T22:31:10.453Z,10.50
2023-04-15T22:33:39.746Z,9.93
2023-04-15T22:36:07.168Z,9.99
2023-04-15T22:38:35.146Z,10.13
2023-04-15T22:41:02.515Z,10.09
2023-04-15T22:43:30.252Z,10.02
2023-04-15T22:45:57.602Z,9.81
2023-04-15T22:48:25.510Z,9.57
2023-04-15T22:50:54.630Z,9.56
2023-04-15T22:53:22.344Z,9.47
2023-04-15T22:55:49.818Z,9.08
2023-04-15T22:58:17.874Z,8.98
2023-04-15T23:00:45.373Z,9.24
2023-04-15T23:03:13.299Z,9.35
2023-04-15T23:05:41.110Z,9.15
2023-04-15T23:08:10.414Z,9.06
2023-04-15T23:10:37.758Z,9.20
2023-04-15T23:13:05.655Z,9.17
2023-04-15T23:15:33.044Z,9.16
2023-04-15T23:18:00.787Z,9.28
2023-04-15T23:20:28.254Z,9.52
2023-04-15T23:22:56.109Z,9.30
2023-04-15T23:25:25.046Z,9.14
2023-04-15T23:27:52.739Z,8.94
2023-04-15T23:30:20.152Z,8.88
2023-04-15T23:32:48.011Z,8.69
2023-04-15T23:35:16.145Z,8.61
2023-04-15T23:37:44.445Z,8.56
2023-04-15T23:40:12.908Z,8.50
2023-04-15T23:42:42.215Z,8.43
2023-04-15T23:45:10.523Z,8.55
2023-04-15T23:47:38.618Z,8.57
2023-04-15T23:50:07.360Z,8.60
2023-04-15T23:52:35.353Z,8.67
2023-04-15T23:55:02.753Z,8.52
2023-04-15T23:57:30.509Z,8.31
2023-04-15T23:59:59.345Z,8.28
